Time;durP1;ratioP1;P1;durP2;ratioP2;P2;SDS_P1;SDS_P2;PMS_P1;PMS_P2;Temp;Humidity;BMP_temperature;BMP_pressure;BME280_temperature;BME280_humidity;BME280_pressure;Samples;Min_cycle;Max_cycle;Signal;HPM_P1;HPM_P2
2022/03/07 00:01:26;;;;;;;13.10;7.50;;;;;;;-2.13;64.93;100030.91;103567;1300;24219;-29
2022/03/07 00:03:54;;;;;;;17.30;8.90;;;;;;;-2.15;65.45;100030.36;103614;1301;24266;-29
2022/03/07 00:06:20;;;;;;;13.80;8.40;;;;;;;-2.16;65.06;100030.80;103515;1300;24230;-29
2022/03/07 00:08:46;;;;;;;10.00;6.20;;;;;;;-2.18;64.63;100030.18;103580;1300;24234;-29
2022/03/07 00:11:12;;;;;;;10.40;6.90;;;;;;;-2.26;64.12;100030.73;103511;1300;24364;-29
2022/03/07 00:13:37;;;;;;;18.40;7.60;;;;;;;-2.25;64.73;100033.13;103572;1300;24263;-25
2022/03/07 00:16:03;;;;;;;14.90;6.80;;;;;;;-2.26;65.02;100034.58;103508;1300;24361;-25
2022/03/07 00:18:29;;;;;;;16.50;8.80;;;;;;;-2.22;65.44;100035.93;103547;1300;24195;-26
2022/03/07 00:20:55;;;;;;;12.20;6.70;;;;;;;-2.20;65.95;100034.90;103509;1300;24275;-25
2022/03/07 00:23:21;;;;;;;12.50;5.60;;;;;;;-2.20;66.13;100034.88;103580;1300;24291;-28
2022/03/07 00:25:47;;;;;;;8.00;5.10;;;;;;;-2.29;65.82;100037.06;103562;1300;24283;-30
2022/03/07 00:28:14;;;;;;;11.30;6.90;;;;;;;-2.26;66.37;100033.91;103422;1300;24292;-26
2022/03/07 00:30:40;;;;;;;7.00;5.60;;;;;;;-2.24;66.34;100034.64;103532;1300;24249;-26
2022/03/07 00:33:06;;;;;;;9.10;6.60;;;;;;;-2.28;66.11;100035.11;103563;1300;24340;-29
2022/03/07 00:35:32;;;;;;;13.50;6.30;;;;;;;-2.18;65.60;100033.73;103597;1301;24249;-26
2022/03/07 00:37:58;;;;;;;12.30;7.30;;;;;;;-2.29;65.66;100032.89;103516;1300;24235;-28
2022/03/07 00:40:24;;;;;;;11.00;7.10;;;;;;;-2.25;66.03;100036.33;103665;1300;24246;-25
2022/03/07 00:42:50;;;;;;;18.20;7.50;;;;;;;-2.20;66.56;100032.25;103571;1300;24284;-25
2022/03/07 00:45:15;;;;;;;10.60;5.50;;;;;;;-2.19;66.25;100030.29;103616;1300;24218;-28
2022/03/07 00:47:41;;;;;;;15.80;6.10;;;;;;;-2.15;66.20;100029.64;103553;1300;24364;-25
2022/03/07 00:50:09;;;;;;;11.30;7.60;;;;;;;-2.12;66.26;100030.70;103642;1299;24404;-29
2022/03/07 00:52:34;;;;;;;8.90;6.00;;;;;;;-2.06;67.21;100027.66;103716;1299;23921;-27
2022/03/07 00:55:00;;;;;;;13.40;6.20;;;;;;;-2.03;66.87;100025.52;103542;1300;22574;-28
2022/03/07 00:57:25;;;;;;;11.60;5.80;;;;;;;-2.01;67.24;100027.85;103613;1299;22651;-29
2022/03/07 00:59:51;;;;;;;10.10;4.70;;;;;;;-1.90;67.11;100028.19;103641;1299;24202;-29
2022/03/07 01:02:18;;;;;;;9.80;6.20;;;;;;;-1.89;66.81;100021.98;103565;1300;24245;-28
2022/03/07 01:04:44;;;;;;;10.10;4.50;;;;;;;-1.87;66.83;100021.84;103705;1299;24256;-28
2022/03/07 01:07:09;;;;;;;14.40;7.90;;;;;;;-1.85;66.97;100018.41;103671;1300;24332;-25
2022/03/07 01:09:35;;;;;;;20.20;5.70;;;;;;;-1.94;68.10;100017.77;103613;1300;24224;-26
2022/03/07 01:12:02;;;;;;;9.30;4.60;;;;;;;-1.74;66.65;100010.25;103595;1300;24213;-29
2022/03/07 01:14:27;;;;;;;7.40;5.10;;;;;;;-1.93;67.12;100010.11;103574;1300;24411;-25
2022/03/07 01:16:53;;;;;;;5.10;2.80;;;;;;;-1.86;66.66;100010.52;103553;1301;24211;-25
2022/03/07 01:19:19;;;;;;;11.20;7.70;;;;;;;-1.97;67.03;100005.12;103552;1300;24424;-28
2022/03/07 01:21:45;;;;;;;11.80;5.20;;;;;;;-2.00;67.35;99999.50;103582;1300;24279;-28
2022/03/07 01:24:11;;;;;;;9.40;4.00;;;;;;;-2.10;67.88;99998.77;103571;1299;24190;-26
2022/03/07 01:26:37;;;;;;;16.70;7.70;;;;;;;-2.07;67.77;99995.09;103621;1299;24301;-25
2022/03/07 01:29:04;;;;;;;12.50;5.40;;;;;;;-2.22;68.17;99989.40;103579;1299;22865;-30
2022/03/07 01:31:29;;;;;;;7.90;4.30;;;;;;;-2.16;67.91;99990.95;103551;1300;24337;-27
2022/03/07 01:33:55;;;;;;;7.40;3.30;;;;;;;-2.00;67.05;99993.06;103417;1302;22849;-29
2022/03/07 01:36:22;;;;;;;8.00;4.80;;;;;;;-2.05;66.35;99991.77;103643;1300;24352;-26
2022/03/07 01:38:48;;;;;;;7.10;3.20;;;;;;;-2.11;66.62;99989.58;103617;1300;24301;-26
2022/03/07 01:41:14;;;;;;;11.10;5.80;;;;;;;-2.10;66.84;99985.31;103506;1300;24336;-26
2022/03/07 01:43:40;;;;;;;5.60;3.80;;;;;;;-2.18;66.84;99987.05;103540;1300;24359;-26
2022/03/07 01:46:08;;;;;;;11.60;6.60;;;;;;;-2.08;66.47;99988.35;103568;1300;24336;-29
2022/03/07 01:48:35;;;;;;;7.90;3.60;;;;;;;-2.10;66.81;99986.88;103599;1300;24279;-26
2022/03/07 01:51:01;;;;;;;10.30;4.80;;;;;;;-2.01;66.62;99988.74;103589;1300;24288;-29
2022/03/07 01:53:27;;;;;;;6.90;4.90;;;;;;;-2.18;67.07;99987.59;103480;1300;23982;-26
2022/03/07 01:55:54;;;;;;;18.10;7.10;;;;;;;-1.98;66.07;99983.77;103530;1300;24196;-25
2022/03/07 01:58:21;;;;;;;16.60;6.80;;;;;;;-2.07;66.44;99976.30;103515;1300;24249;-29
2022/03/07 02:00:47;;;;;;;11.20;5.70;;;;;;;-2.07;66.83;99974.39;103603;1300;23917;-30
2022/03/07 02:03:13;;;;;;;7.80;5.00;;;;;;;-2.07;67.11;99966.11;103536;1300;24215;-30
2022/03/07 02:05:40;;;;;;;6.20;4.20;;;;;;;-2.17;67.58;99967.68;103397;1300;24372;-28
2022/03/07 02:08:07;;;;;;;14.00;5.00;;;;;;;-2.01;66.74;99963.26;103513;1300;24211;-29
2022/03/07 02:10:33;;;;;;;7.10;3.00;;;;;;;-2.16;67.48;99960.23;103594;1300;24211;-25
2022/03/07 02:12:59;;;;;;;12.50;5.80;;;;;;;-2.08;66.99;99957.59;103496;1301;24522;-26
2022/03/07 02:15:25;;;;;;;7.60;4.00;;;;;;;-2.08;67.07;99952.66;103578;1300;24192;-29
2022/03/07 02:17:50;;;;;;;11.30;6.60;;;;;;;-2.07;67.06;99950.52;103541;1300;24298;-25
2022/03/07 02:20:16;;;;;;;17.00;8.20;;;;;;;-2.12;67.72;99950.31;103594;1300;24407;-28
2022/03/07 02:22:42;;;;;;;14.60;7.10;;;;;;;-2.17;68.04;99952.44;103556;1300;24256;-29
2022/03/07 02:25:08;;;;;;;14.00;6.90;;;;;;;-1.90;67.00;99953.08;103547;1300;24182;-25
2022/03/07 02:27:34;;;;;;;22.50;9.70;;;;;;;-2.06;67.13;99955.58;103616;1300;24211;-27
2022/03/07 02:30:00;;;;;;;11.80;9.00;;;;;;;-2.14;67.48;99951.33;103477;1301;24232;-26
2022/03/07 02:32:27;;;;;;;10.30;4.50;;;;;;;-2.00;66.89;99949.73;103509;1302;24225;-29
2022/03/07 02:34:52;;;;;;;12.90;8.50;;;;;;;-2.03;66.94;99948.65;103532;1300;24262;-26
2022/03/07 02:37:18;;;;;;;4.00;2.50;;;;;;;-1.92;66.91;99949.17;103569;1300;24255;-26
2022/03/07 02:39:44;;;;;;;12.00;7.60;;;;;;;-2.01;67.93;99946.97;103562;1301;24239;-29
2022/03/07 02:42:12;;;;;;;18.80;8.20;;;;;;;-2.02;68.14;99948.98;103509;1302;22725;-29
2022/03/07 02:44:38;;;;;;;18.50;8.90;;;;;;;-2.11;68.65;99943.83;103566;1300;24328;-25
2022/03/07 02:47:04;;;;;;;11.80;7.80;;;;;;;-2.27;69.07;99948.36;103641;1301;24218;-29
2022/03/07 02:49:30;;;;;;;17.00;7.20;;;;;;;-2.17;69.10;99941.38;103517;1300;24317;-28
2022/03/07 02:51:55;;;;;;;15.00;5.70;;;;;;;-2.17;69.66;99940.86;103520;1300;24221;-29
2022/03/07 02:54:21;;;;;;;20.40;11.70;;;;;;;-2.02;69.05;99939.50;103496;1300;24259;-25
2022/03/07 02:56:47;;;;;;;8.90;4.90;;;;;;;-1.97;68.53;99935.63;103540;1300;24297;-29
2022/03/07 02:59:14;;;;;;;21.00;6.80;;;;;;;-2.27;69.21;99933.11;103547;1300;24249;-26
2022/03/07 03:01:39;;;;;;;19.70;6.60;;;;;;;-2.33;69.48;99934.01;103565;1300;24275;-29
2022/03/07 03:04:05;;;;;;;9.60;4.00;;;;;;;-2.21;69.38;99924.82;103600;1300;24342;-30
2022/03/07 03:06:31;;;;;;;14.80;8.90;;;;;;;-2.22;69.60;99925.24;103577;1300;24308;-26
2022/03/07 03:08:58;;;;;;;15.80;7.20;;;;;;;-2.24;70.32;99929.02;103524;1300;24215;-28
2022/03/07 03:11:23;;;;;;;24.50;11.30;;;;;;;-2.32;70.73;99934.09;103548;1300;24405;-27
2022/03/07 03:13:49;;;;;;;33.70;11.00;;;;;;;-2.36;71.28;99932.83;103555;1300;24239;-28
2022/03/07 03:16:16;;;;;;;14.90;6.10;;;;;;;-2.31;71.19;99929.98;103541;1300;24237;-27
2022/03/07 03:18:42;;;;;;;14.90;8.40;;;;;;;-2.19;70.72;99932.20;103701;1300;22631;-27
2022/03/07 03:21:08;;;;;;;14.10;8.80;;;;;;;-2.16;70.65;99935.14;103538;1300;24257;-30
2022/03/07 03:23:33;;;;;;;21.30;12.20;;;;;;;-2.09;70.45;99939.95;103547;1300;22496;-29
2022/03/07 03:25:59;;;;;;;14.10;7.70;;;;;;;-2.26;71.76;99931.62;103579;1300;24243;-27
2022/03/07 03:28:25;;;;;;;12.40;5.90;;;;;;;-2.21;71.58;99930.77;103579;1300;24259;-27
2022/03/07 03:30:52;;;;;;;17.00;6.80;;;;;;;-2.21;71.74;99924.46;103619;1300;24321;-29
2022/03/07 03:33:18;;;;;;;17.50;9.50;;;;;;;-2.31;72.85;99918.48;103618;1300;22504;-30
2022/03/07 03:35:43;;;;;;;21.00;10.10;;;;;;;-2.20;72.60;99921.90;103506;1300;24212;-30
2022/03/07 03:38:09;;;;;;;22.40;11.70;;;;;;;-2.25;72.45;99920.70;103545;1300;24212;-28
2022/03/07 03:40:36;;;;;;;19.50;7.10;;;;;;;-2.29;73.04;99919.23;103537;1300;25383;-29
2022/03/07 03:43:01;;;;;;;19.80;10.50;;;;;;;-2.17;72.06;99924.16;103577;1300;24312;-30
2022/03/07 03:45:27;;;;;;;21.60;7.30;;;;;;;-2.30;72.45;99927.53;103547;1300;24277;-30
2022/03/07 03:47:53;;;;;;;23.30;8.30;;;;;;;-2.31;72.78;99926.19;103571;1300;24350;-26
2022/03/07 03:50:19;;;;;;;24.10;10.60;;;;;;;-2.30;72.27;99918.23;103534;1300;24229;-28
2022/03/07 03:52:44;;;;;;;15.80;5.90;;;;;;;-2.32;72.18;99917.11;103556;1300;24211;-25
2022/03/07 03:55:11;;;;;;;15.20;4.80;;;;;;;-2.38;72.47;99912.29;103554;1300;24249;-25
2022/03/07 03:57:38;;;;;;;10.50;5.30;;;;;;;-2.30;72.23;99907.67;103539;1302;24347;-28
2022/03/07 04:00:06;;;;;;;17.20;8.70;;;;;;;-2.26;71.91;99906.36;103574;1302;22516;-28
2022/03/07 04:02:32;;;;;;;14.30;4.70;;;;;;;-2.36;72.33;99905.63;103624;1300;24250;-30
2022/03/07 04:04:58;;;;;;;24.00;11.60;;;;;;;-2.47;72.95;99915.48;103533;1300;24182;-27
2022/03/07 04:07:25;;;;;;;24.90;9.40;;;;;;;-2.57;74.54;99918.06;103522;1300;24246;-27
2022/03/07 04:09:51;;;;;;;21.50;9.90;;;;;;;-2.49;74.55;99918.42;103401;1302;22721;-26
2022/03/07 04:12:17;;;;;;;21.20;11.60;;;;;;;-2.46;74.18;99918.88;103333;1300;420843;-25
2022/03/07 04:14:42;;;;;;;19.20;8.90;;;;;;;-2.49;75.29;99924.90;103584;1300;24219;-25
2022/03/07 04:17:08;;;;;;;18.40;8.40;;;;;;;-2.52;75.56;99924.05;103455;1302;24259;-25
2022/03/07 04:19:34;;;;;;;20.80;9.10;;;;;;;-2.48;75.28;99921.13;103646;1300;24805;-25
2022/03/07 04:22:00;;;;;;;18.50;6.70;;;;;;;-2.47;75.21;99923.20;103517;1302;24248;-28
2022/03/07 04:24:28;;;;;;;12.70;6.50;;;;;;;-2.47;74.95;99922.16;103607;1300;24200;-30
2022/03/07 04:26:54;;;;;;;17.00;9.70;;;;;;;-2.42;74.98;99916.88;103593;1300;24205;-28
2022/03/07 04:29:19;;;;;;;21.10;8.80;;;;;;;-2.41;74.70;99918.23;103566;1300;24218;-25
2022/03/07 04:31:45;;;;;;;19.30;9.40;;;;;;;-2.43;74.96;99918.71;103591;1300;24199;-27
2022/03/07 04:34:13;;;;;;;17.80;9.80;;;;;;;-2.40;75.56;99913.58;103535;1302;24291;-30
2022/03/07 04:36:39;;;;;;;23.60;11.90;;;;;;;-2.38;75.55;99914.69;103575;1300;24318;-25
2022/03/07 04:39:05;;;;;;;21.60;10.70;;;;;;;-2.38;75.48;99917.69;103530;1300;24245;-25
2022/03/07 04:41:31;;;;;;;19.80;11.10;;;;;;;-2.35;75.65;99913.13;103630;1300;24316;-25
2022/03/07 04:43:57;;;;;;;20.20;9.30;;;;;;;-2.36;75.20;99914.02;103425;1302;24325;-25
2022/03/07 04:46:23;;;;;;;23.40;10.90;;;;;;;-2.38;75.43;99918.38;103581;1300;24433;-25
2022/03/07 04:48:49;;;;;;;9.60;5.80;;;;;;;-2.39;75.01;99923.38;103515;1300;24246;-30
2022/03/07 04:51:15;;;;;;;22.80;11.40;;;;;;;-2.41;75.56;99916.80;103546;1300;24224;-29
2022/03/07 04:53:40;;;;;;;40.10;14.10;;;;;;;-2.37;75.37;99919.58;103522;1300;24237;-26
2022/03/07 04:56:06;;;;;;;28.90;13.80;;;;;;;-2.41;75.18;99925.06;103516;1300;24350;-29
2022/03/07 04:58:32;;;;;;;28.80;12.40;;;;;;;-2.43;75.60;99922.23;103576;1300;24228;-26
2022/03/07 05:00:58;;;;;;;26.70;11.90;;;;;;;-2.41;76.35;99926.33;103522;1300;24367;-25
2022/03/07 05:03:23;;;;;;;24.00;10.50;;;;;;;-2.45;76.27;99924.79;103590;1300;22842;-29
2022/03/07 05:05:49;;;;;;;21.10;11.40;;;;;;;-2.45;76.18;99923.91;103535;1300;24358;-26
2022/03/07 05:08:16;;;;;;;18.40;10.10;;;;;;;-2.48;77.02;99924.85;103570;1300;24365;-26
2022/03/07 05:10:42;;;;;;;26.80;13.10;;;;;;;-2.50;76.59;99927.23;103508;1300;24319;-29
2022/03/07 05:13:09;;;;;;;32.90;13.10;;;;;;;-2.46;77.02;99933.66;103636;1300;24294;-26
2022/03/07 05:15:34;;;;;;;32.40;11.70;;;;;;;-2.40;76.99;99930.24;103563;1298;24349;-26
2022/03/07 05:18:00;;;;;;;21.10;8.70;;;;;;;-2.29;77.45;99927.95;103616;1300;24212;-26
2022/03/07 05:20:26;;;;;;;23.10;10.30;;;;;;;-2.24;76.89;99930.23;103458;1302;24272;-29
2022/03/07 05:22:52;;;;;;;21.90;11.70;;;;;;;-2.21;77.28;99936.34;103459;1300;24272;-29
2022/03/07 05:25:18;;;;;;;26.70;11.10;;;;;;;-2.16;77.52;99943.94;103450;1302;24246;-29
2022/03/07 05:27:44;;;;;;;17.40;10.00;;;;;;;-2.10;77.47;99942.13;103612;1300;24297;-26
2022/03/07 05:30:15;;;;;;;21.70;11.10;;;;;;;-2.11;77.30;99946.95;103527;1300;22495;-29
2022/03/07 05:32:43;;;;;;;25.20;11.60;;;;;;;-2.09;77.39;99944.52;103589;1300;24212;-29
2022/03/07 05:35:10;;;;;;;29.90;11.50;;;;;;;-2.08;77.10;99945.17;103572;1300;24336;-29
2022/03/07 05:37:36;;;;;;;26.70;12.80;;;;;;;-2.09;77.84;99944.16;103483;1301;24246;-26
2022/03/07 05:40:03;;;;;;;31.70;11.90;;;;;;;-2.07;77.66;99945.44;103601;1301;24313;-28
2022/03/07 05:42:28;;;;;;;24.40;11.10;;;;;;;-2.13;77.23;99944.60;103522;1302;25907;-29
2022/03/07 05:44:54;;;;;;;36.50;11.30;;;;;;;-2.11;77.30;99946.08;103584;1300;24205;-29
2022/03/07 05:47:20;;;;;;;24.70;10.10;;;;;;;-2.15;77.51;99948.79;103447;1301;24222;-29
2022/03/07 05:49:49;;;;;;;22.20;11.70;;;;;;;-2.13;77.20;99949.53;103524;1300;24402;-29
2022/03/07 05:52:15;;;;;;;26.20;11.70;;;;;;;-2.08;77.32;99949.75;103559;1300;24217;-29
2022/03/07 05:54:41;;;;;;;24.80;10.50;;;;;;;-1.99;76.99;99949.13;103533;1300;22495;-29
2022/03/07 05:57:07;;;;;;;25.40;11.80;;;;;;;-2.05;77.43;99953.93;103577;1300;24359;-26
2022/03/07 05:59:33;;;;;;;28.10;13.20;;;;;;;-2.00;77.22;99949.36;103570;1300;22744;-29
2022/03/07 06:01:58;;;;;;;19.60;11.40;;;;;;;-2.02;77.09;99950.71;103628;1303;24225;-29
2022/03/07 06:04:24;;;;;;;32.60;14.50;;;;;;;-1.93;77.19;99947.16;103494;1302;24260;-27
2022/03/07 06:06:50;;;;;;;32.70;11.90;;;;;;;-2.04;77.43;99950.32;103520;1302;24259;-29
2022/03/07 06:09:17;;;;;;;15.60;7.50;;;;;;;-1.99;77.67;99948.58;103612;1300;25347;-26
2022/03/07 06:11:43;;;;;;;27.60;12.10;;;;;;;-1.95;77.82;99952.20;103553;1301;24356;-25
2022/03/07 06:14:09;;;;;;;25.90;11.50;;;;;;;-1.89;77.45;99951.41;103541;1301;24220;-28
2022/03/07 06:16:34;;;;;;;35.80;14.00;;;;;;;-1.81;77.72;99954.38;103508;1300;24196;-28
2022/03/07 06:19:00;;;;;;;27.30;13.10;;;;;;;-1.82;77.77;99955.86;103493;1303;24299;-29
2022/03/07 06:21:26;;;;;;;42.20;11.70;;;;;;;-1.77;77.98;99957.46;103456;1302;22513;-27
2022/03/07 06:23:51;;;;;;;23.20;13.10;;;;;;;-1.79;77.77;99963.90;103574;1302;24215;-27
2022/03/07 06:26:17;;;;;;;26.80;12.30;;;;;;;-1.78;77.48;99961.95;103576;1302;24361;-30
2022/03/07 06:28:43;;;;;;;24.50;12.20;;;;;;;-1.71;77.32;99961.06;103599;1302;24250;-27
2022/03/07 06:31:09;;;;;;;33.70;14.20;;;;;;;-1.67;77.94;99962.58;103580;1302;24298;-26
2022/03/07 06:33:34;;;;;;;21.10;9.50;;;;;;;-1.66;77.40;99964.08;103526;1301;24310;-25
2022/03/07 06:36:00;;;;;;;28.20;11.70;;;;;;;-1.56;77.26;99959.58;103592;1300;24215;-31
2022/03/07 06:38:26;;;;;;;18.10;10.20;;;;;;;-1.51;77.08;99958.51;103605;1302;24407;-28
2022/03/07 06:40:52;;;;;;;21.30;10.70;;;;;;;-1.51;76.82;99958.85;103648;1303;24420;-28
2022/03/07 06:43:20;;;;;;;29.70;12.00;;;;;;;-1.49;77.01;99955.73;103620;1301;24337;-29
2022/03/07 06:45:45;;;;;;;14.00;7.60;;;;;;;-1.48;76.76;99957.23;103498;1302;24292;-25
2022/03/07 06:48:11;;;;;;;21.20;11.70;;;;;;;-1.32;76.62;99954.73;103367;1303;24233;-30
2022/03/07 06:50:38;;;;;;;13.10;7.40;;;;;;;-1.40;76.92;99955.13;103558;1301;24359;-27
2022/03/07 06:53:04;;;;;;;27.40;11.90;;;;;;;-1.22;76.74;99958.05;103572;1300;24390;-25
2022/03/07 06:55:30;;;;;;;27.70;11.50;;;;;;;-1.22;76.83;99958.59;103535;1300;24225;-28
2022/03/07 06:57:55;;;;;;;32.60;12.40;;;;;;;-1.16;77.21;99953.58;103590;1303;24671;-25
2022/03/07 07:00:21;;;;;;;30.10;12.30;;;;;;;-1.06;76.43;99956.40;103580;1302;24301;-29
2022/03/07 07:02:47;;;;;;;22.40;11.80;;;;;;;-1.01;76.62;99960.59;103533;1302;24259;-26
2022/03/07 07:05:13;;;;;;;21.80;9.10;;;;;;;-0.82;76.09;99965.75;103534;1301;24218;-29
2022/03/07 07:07:39;;;;;;;22.20;11.60;;;;;;;-0.92;75.54;99963.48;103561;1300;22628;-31
2022/03/07 07:10:06;;;;;;;28.00;12.30;;;;;;;-0.80;75.94;99964.20;103554;1302;24245;-30
2022/03/07 07:12:33;;;;;;;22.30;10.60;;;;;;;-0.73;75.57;99959.85;103528;1302;22633;-26
2022/03/07 07:14:59;;;;;;;19.80;9.70;;;;;;;-0.69;75.73;99962.88;103632;1303;24215;-27
2022/03/07 07:17:25;;;;;;;21.70;11.80;;;;;;;-0.65;75.71;99963.65;103556;1300;22507;-26
2022/03/07 07:19:50;;;;;;;18.70;8.80;;;;;;;-0.59;75.36;99960.94;103513;1302;24345;-26
2022/03/07 07:22:16;;;;;;;31.50;10.40;;;;;;;-0.49;74.93;99956.32;103510;1303;24243;-25
2022/03/07 07:24:42;;;;;;;17.40;8.80;;;;;;;-0.55;75.67;99959.20;103559;1300;24164;-30
2022/03/07 07:27:08;;;;;;;19.10;9.70;;;;;;;-0.41;75.20;99955.78;103594;1303;24353;-26
2022/03/07 07:29:33;;;;;;;21.90;9.40;;;;;;;-0.63;75.40;99949.80;103556;1300;24320;-25
2022/03/07 07:32:01;;;;;;;21.20;8.80;;;;;;;-0.39;75.87;99956.11;103530;1300;24337;-26
2022/03/07 07:34:27;;;;;;;26.70;10.90;;;;;;;-0.30;75.22;99955.07;103614;1303;24238;-26
2022/03/07 07:36:53;;;;;;;15.70;8.40;;;;;;;-0.27;75.00;99949.56;103604;1301;24321;-29
2022/03/07 07:39:18;;;;;;;27.70;8.60;;;;;;;-0.27;75.20;99953.34;103605;1301;24363;-26
2022/03/07 07:41:44;;;;;;;14.30;7.20;;;;;;;-0.33;75.35;99952.88;103556;1300;24236;-29
2022/03/07 07:44:10;;;;;;;34.20;10.20;;;;;;;-0.27;75.60;99949.39;103598;1300;22496;-29
2022/03/07 07:46:36;;;;;;;23.20;9.50;;;;;;;-0.23;75.78;99948.62;103563;1302;24312;-30
2022/03/07 07:49:02;;;;;;;18.80;9.30;;;;;;;-0.15;75.65;99955.75;103587;1300;24295;-25
2022/03/07 07:51:27;;;;;;;17.10;8.70;;;;;;;0.08;75.60;99951.21;103543;1303;24305;-26
2022/03/07 07:53:53;;;;;;;24.20;9.70;;;;;;;0.16;74.66;99951.79;103587;1302;24326;-25
2022/03/07 07:56:19;;;;;;;26.00;10.20;;;;;;;0.10;75.15;99954.20;103467;1302;22496;-29
2022/03/07 07:58:45;;;;;;;20.10;9.50;;;;;;;0.23;75.13;99952.91;103532;1300;24412;-28
2022/03/07 08:01:11;;;;;;;28.20;8.90;;;;;;;0.32;74.53;99950.10;103554;1301;24196;-26
2022/03/07 08:03:37;;;;;;;24.70;8.40;;;;;;;0.51;74.46;99952.47;103648;1302;24225;-29
2022/03/07 08:06:03;;;;;;;14.90;8.50;;;;;;;0.62;73.67;99948.98;103609;1303;24227;-28
2022/03/07 08:08:29;;;;;;;20.90;9.30;;;;;;;0.84;73.36;99948.66;103483;1302;24400;-28
2022/03/07 08:10:56;;;;;;;14.30;6.60;;;;;;;1.00;72.58;99950.55;103571;1302;24156;-29
2022/03/07 08:13:22;;;;;;;14.10;7.40;;;;;;;1.14;72.57;99949.84;103564;1300;24315;-28
2022/03/07 08:15:48;;;;;;;14.40;7.60;;;;;;;1.39;72.06;99950.99;103544;1303;22509;-26
2022/03/07 08:18:13;;;;;;;35.80;10.40;;;;;;;1.64;70.61;99951.26;103472;1303;22893;-25
2022/03/07 08:20:39;;;;;;;12.80;7.00;;;;;;;1.97;70.06;99950.98;103490;1302;24153;-28
2022/03/07 08:23:05;;;;;;;11.70;6.10;;;;;;;2.07;68.64;99957.20;103539;1300;24332;-25
2022/03/07 08:25:32;;;;;;;8.80;5.00;;;;;;;1.88;69.06;99954.55;103616;1303;24199;-26
2022/03/07 08:27:58;;;;;;;7.90;4.90;;;;;;;2.04;68.69;99953.92;103615;1301;23946;-28
2022/03/07 08:30:24;;;;;;;6.10;3.80;;;;;;;1.98;68.39;99953.19;103487;1300;24221;-31
2022/03/07 08:32:51;;;;;;;8.60;4.50;;;;;;;2.05;67.87;99949.79;103512;1302;24214;-28
2022/03/07 08:35:17;;;;;;;6.50;2.90;;;;;;;1.88;67.22;99951.36;103576;1303;24224;-28
2022/03/07 08:37:45;;;;;;;7.20;4.80;;;;;;;1.62;68.36;99951.59;103547;1300;22500;-28
2022/03/07 08:40:11;;;;;;;5.20;2.80;;;;;;;2.08;67.80;99948.80;103566;1302;24329;-28
2022/03/07 08:42:37;;;;;;;5.90;4.40;;;;;;;2.43;66.58;99946.71;103594;1300;24377;-28
2022/03/07 08:45:04;;;;;;;6.50;4.20;;;;;;;2.68;65.53;99949.02;103559;1302;24227;-26
2022/03/07 08:47:30;;;;;;;9.90;4.60;;;;;;;2.91;64.84;99952.98;103457;1302;24211;-28
2022/03/07 08:49:56;;;;;;;9.40;5.40;;;;;;;3.17;64.57;99950.20;103555;1302;24397;-28
2022/03/07 08:52:22;;;;;;;10.60;5.70;;;;;;;3.13;64.54;99950.02;103695;1301;23832;-30
2022/03/07 08:54:47;;;;;;;9.20;3.60;;;;;;;2.92;64.83;99948.05;103596;1302;24310;-25
2022/03/07 08:57:13;;;;;;;9.70;4.50;;;;;;;3.14;63.99;99951.91;103598;1302;24225;-28
2022/03/07 08:59:39;;;;;;;7.20;4.50;;;;;;;3.11;64.51;99954.96;103535;1302;24374;-28
2022/03/07 09:02:05;;;;;;;11.40;5.80;;;;;;;3.48;63.21;99949.60;103522;1300;22945;-28
2022/03/07 09:04:31;;;;;;;6.50;4.00;;;;;;;3.57;63.04;99945.73;103794;1302;24230;-28
2022/03/07 09:06:57;;;;;;;9.90;4.40;;;;;;;3.98;61.44;99942.86;103605;1303;22847;-25
2022/03/07 09:09:23;;;;;;;6.20;3.90;;;;;;;4.40;58.93;99941.67;103634;1300;22941;-28
2022/03/07 09:11:50;;;;;;;9.50;4.00;;;;;;;3.99;59.99;99940.69;103668;1300;24212;-25
2022/03/07 09:14:16;;;;;;;9.20;4.00;;;;;;;3.99;60.21;99945.67;103615;1302;24297;-26
2022/03/07 09:16:42;;;;;;;7.30;4.10;;;;;;;4.31;59.46;99935.63;103595;1300;22500;-24
2022/03/07 09:19:08;;;;;;;6.00;3.10;;;;;;;4.58;58.63;99935.75;103627;1302;24249;-28
2022/03/07 09:21:34;;;;;;;6.80;2.80;;;;;;;4.30;59.15;99934.14;103574;1300;22604;-29
2022/03/07 09:24:00;;;;;;;8.00;3.30;;;;;;;4.91;58.47;99929.34;103613;1302;24365;-27
2022/03/07 09:26:26;;;;;;;9.40;4.40;;;;;;;4.40;57.63;99928.89;103723;1300;24205;-28
2022/03/07 09:28:51;;;;;;;5.90;2.60;;;;;;;4.40;57.76;99926.79;103612;1300;24467;-30
2022/03/07 09:31:17;;;;;;;2.30;1.60;;;;;;;4.32;57.41;99925.92;103617;1303;22874;-25
2022/03/07 09:33:43;;;;;;;10.10;3.90;;;;;;;4.90;55.77;99925.23;103682;1300;22761;-30
2022/03/07 09:36:09;;;;;;;5.60;3.40;;;;;;;4.25;57.62;99921.05;103588;1300;24292;-24
2022/03/07 09:38:36;;;;;;;4.00;2.10;;;;;;;4.29;58.45;99913.27;103638;1300;24364;-28
2022/03/07 09:41:02;;;;;;;4.20;2.50;;;;;;;4.36;58.74;99914.90;103655;1302;22503;-27
2022/03/07 09:43:28;;;;;;;5.00;3.00;;;;;;;4.01;59.79;99912.48;103638;1300;24266;-29
2022/03/07 09:45:54;;;;;;;2.60;1.90;;;;;;;4.14;59.32;99912.55;103587;1300;24213;-28
2022/03/07 09:48:22;;;;;;;8.80;4.00;;;;;;;4.33;59.45;99910.59;103679;1301;24226;-26
2022/03/07 09:50:48;;;;;;;4.40;2.40;;;;;;;4.32;59.72;99911.61;103730;1300;24210;-28
2022/03/07 09:53:16;;;;;;;7.30;2.50;;;;;;;5.03;56.77;99910.48;103704;1303;24281;-25
2022/03/07 09:55:42;;;;;;;4.20;2.60;;;;;;;4.72;56.95;99907.22;103541;1302;24325;-28
2022/03/07 09:58:08;;;;;;;4.30;2.20;;;;;;;4.41;57.75;99906.15;103683;1300;24246;-25
2022/03/07 10:00:34;;;;;;;6.40;3.20;;;;;;;4.26;58.33;99905.72;103660;1300;22753;-25
2022/03/07 10:03:04;;;;;;;5.10;2.30;;;;;;;4.80;58.30;99905.38;103575;1302;24211;-28
2022/03/07 10:05:33;;;;;;;3.10;2.00;;;;;;;5.15;56.32;99906.50;103674;1299;22529;-25
2022/03/07 10:07:59;;;;;;;8.40;2.60;;;;;;;5.21;55.96;99906.48;103614;1302;24375;-27
2022/03/07 10:10:30;;;;;;;6.90;3.00;;;;;;;5.11;56.59;99907.94;103636;1299;24301;-30
2022/03/07 10:12:56;;;;;;;5.30;3.60;;;;;;;4.15;58.10;99908.53;103672;1299;22613;-28
2022/03/07 10:15:22;;;;;;;6.20;2.50;;;;;;;4.15;58.90;99907.64;103534;1300;24364;-26
2022/03/07 10:17:50;;;;;;;2.60;2.10;;;;;;;3.94;59.20;99908.42;103573;1303;24286;-28
2022/03/07 10:20:19;;;;;;;5.10;2.00;;;;;;;4.40;58.88;99906.62;103669;1299;22885;-28
2022/03/07 10:22:48;;;;;;;4.30;3.00;;;;;;;5.16;56.72;99907.80;103667;1300;24392;-27
2022/03/07 10:25:14;;;;;;;6.80;2.30;;;;;;;5.50;56.99;99901.14;103491;1301;22893;-28
2022/03/07 10:27:41;;;;;;;4.80;3.00;;;;;;;5.00;56.49;99905.61;103489;1302;24260;-28
2022/03/07 10:30:09;;;;;;;3.00;2.40;;;;;;;5.67;55.19;99903.19;104179;1300;26109;-28
2022/03/07 10:32:35;;;;;;;5.90;3.20;;;;;;;5.74;54.70;99907.46;103595;1302;24368;-25
2022/03/07 10:35:01;;;;;;;6.80;2.80;;;;;;;5.75;55.20;99902.36;103581;1300;24300;-25
2022/03/07 10:37:31;;;;;;;3.80;1.30;;;;;;;5.48;55.35;99912.90;103557;1303;24263;-25
2022/03/07 10:39:57;;;;;;;4.80;2.10;;;;;;;5.78;55.65;99907.77;103731;1297;22508;-28
2022/03/07 10:42:22;;;;;;;5.10;2.30;;;;;;;6.19;54.67;99903.61;103778;1300;24237;-25
2022/03/07 10:44:48;;;;;;;4.10;3.10;;;;;;;6.25;54.05;99896.27;103477;1302;24278;-28
2022/03/07 10:47:16;;;;;;;4.10;3.50;;;;;;;5.55;55.43;99902.22;103322;1303;24266;-28
2022/03/07 10:49:47;;;;;;;6.80;3.80;;;;;;;5.07;56.70;99904.07;103605;1301;24315;-30
2022/03/07 10:52:13;;;;;;;6.80;3.90;;;;;;;6.12;55.26;99900.78;103580;1299;22803;-30
2022/03/07 10:54:39;;;;;;;8.70;3.40;;;;;;;6.50;54.37;99901.48;103765;1302;24312;-29
2022/03/07 10:57:06;;;;;;;8.70;3.70;;;;;;;6.58;52.85;99897.00;103616;1303;24292;-25
2022/03/07 10:59:33;;;;;;;3.80;2.10;;;;;;;6.03;53.50;99893.89;103547;1301;22855;-27
2022/03/07 11:02:00;;;;;;;6.70;3.90;;;;;;;6.60;53.13;99886.80;103517;1302;24211;-28
2022/03/07 11:04:26;;;;;;;5.80;2.90;;;;;;;6.37;53.24;99881.52;103652;1300;24222;-25
2022/03/07 11:06:53;;;;;;;2.60;2.00;;;;;;;6.72;53.45;99879.14;103620;1300;24227;-27
2022/03/07 11:09:19;;;;;;;4.20;2.90;;;;;;;6.37;53.86;99880.63;103551;1303;24328;-28
2022/03/07 11:11:45;;;;;;;3.80;2.90;;;;;;;6.44;53.94;99876.54;103538;1303;24226;-28
2022/03/07 11:14:11;;;;;;;9.50;3.30;;;;;;;5.50;55.44;99879.93;103502;1301;24317;-30